createdAt,value
2018-05-03T00:00:47.397Z,13.57
2018-05-03T00:03:15.122Z,18.30
2018-05-03T00:05:42.842Z,16.93
2018-05-03T00:08:10.527Z,17.40
2018-05-03T00:10:38.228Z,18.50
2018-05-03T00:13:05.933Z,17.43
2018-05-03T00:15:33.561Z,18.07
2018-05-03T00:18:01.178Z,17.73
2018-05-03T00:20:28.802Z,19.77
2018-05-03T00:22:56.474Z,21.03
2018-05-03T00:25:24.221Z,23.50
2018-05-03T00:27:51.878Z,17.10
2018-05-03T00:30:19.590Z,20.17
2018-05-03T00:32:47.257Z,16.37
2018-05-03T00:35:14.921Z,18.80
2018-05-03T00:37:42.641Z,19.93
2018-05-03T00:40:10.310Z,25.87
2018-05-03T00:42:37.954Z,18.20
2018-05-03T00:45:05.633Z,18.70
2018-05-03T00:47:33.283Z,19.90
2018-05-03T00:50:01.050Z,21.40
2018-05-03T00:52:28.675Z,19.50
2018-05-03T00:54:56.390Z,21.13
2018-05-03T00:57:24.141Z,19.17
2018-05-03T00:59:51.835Z,17.43
2018-05-03T01:02:19.542Z,20.17
2018-05-03T01:04:47.161Z,19.93
2018-05-03T01:07:14.802Z,24.10
2018-05-03T01:09:42.441Z,20.87
2018-05-03T01:12:10.106Z,18.90
2018-05-03T01:14:37.794Z,21.93
2018-05-03T01:17:05.434Z,19.93
2018-05-03T01:19:33.059Z,20.63
2018-05-03T01:22:00.687Z,22.77
2018-05-03T01:24:28.436Z,20.17
2018-05-03T01:26:56.090Z,21.00
2018-05-03T01:29:23.742Z,23.13
2018-05-03T01:31:51.469Z,19.77
2018-05-03T01:34:19.630Z,24.77
2018-05-03T01:36:47.259Z,22.47
2018-05-03T01:39:14.894Z,27.20
2018-05-03T01:41:42.577Z,25.07
2018-05-03T01:44:10.261Z,23.33
2018-05-03T01:46:38.001Z,24.83
2018-05-03T01:49:05.661Z,24.77
2018-05-03T01:51:33.360Z,21.63
2018-05-03T01:54:01.077Z,22.73
2018-05-03T01:56:28.757Z,26.33
2018-05-03T01:58:56.489Z,25.67
2018-05-03T02:01:24.196Z,20.77
2018-05-03T02:03:51.902Z,23.50
2018-05-03T02:06:19.602Z,22.73
2018-05-03T02:08:47.274Z,25.80
2018-05-03T02:11:14.965Z,23.63
2018-05-03T02:13:42.709Z,24.77
2018-05-03T02:16:10.416Z,25.50
2018-05-03T02:18:38.127Z,28.47
2018-05-03T02:21:05.847Z,28.93
2018-05-03T02:23:33.562Z,23.90
2018-05-03T02:26:01.257Z,26.93
2018-05-03T02:28:28.904Z,31.87
2018-05-03T02:30:56.625Z,27.93
2018-05-03T02:33:24.346Z,24.80
2018-05-03T02:35:52.166Z,28.77
2018-05-03T02:38:19.866Z,26.83
2018-05-03T02:40:47.542Z,25.13
2018-05-03T02:43:15.218Z,24.57
2018-05-03T02:45:42.927Z,24.27
2018-05-03T02:48:10.650Z,26.70
2018-05-03T02:50:38.417Z,27.90
2018-05-03T02:53:06.051Z,28.20
2018-05-03T02:55:33.705Z,23.60
2018-05-03T02:58:18.064Z,28.20
2018-05-03T03:01:03.263Z,25.20
2018-05-03T03:03:48.518Z,26.70
2018-05-03T03:06:33.630Z,29.23
2018-05-03T03:09:18.604Z,27.63
2018-05-03T03:12:03.669Z,26.17
2018-05-03T03:18:06.454Z,26.80
2018-05-03T03:21:01.307Z,24.33
2018-05-03T03:23:46.412Z,29.00
2018-05-03T03:26:27.646Z,24.73
2018-05-03T03:29:12.828Z,31.00
2018-05-03T03:31:57.746Z,34.93
2018-05-03T03:34:27.220Z,39.97
2018-05-03T03:37:03.455Z,42.20
2018-05-03T03:39:42.966Z,46.77
2018-05-03T03:42:22.288Z,46.57
2018-05-03T03:44:49.974Z,50.73
2018-05-03T03:47:17.656Z,56.03
2018-05-03T03:49:45.382Z,55.53
2018-05-03T03:52:13.001Z,55.07
2018-05-03T03:54:40.701Z,52.00
2018-05-03T03:57:08.414Z,49.13
2018-05-03T03:59:36.113Z,58.73
2018-05-03T04:02:03.861Z,50.07
2018-05-03T04:04:31.543Z,48.23
2018-05-03T04:06:59.222Z,52.53
2018-05-03T04:09:26.866Z,52.77
2018-05-03T04:11:54.517Z,51.33
2018-05-03T04:14:22.143Z,54.43
2018-05-03T04:16:49.851Z,49.30
2018-05-03T04:19:29.058Z,51.10
2018-05-03T04:22:08.349Z,51.53
2018-05-03T04:24:47.793Z,51.83
2018-05-03T04:27:15.405Z,51.93
2018-05-03T04:29:43.114Z,46.73
2018-05-03T04:32:10.803Z,48.30
2018-05-03T04:34:38.607Z,52.43
2018-05-03T04:37:06.229Z,52.73
2018-05-03T04:39:33.862Z,48.10
2018-05-03T04:42:01.514Z,40.37
2018-05-03T04:44:29.150Z,36.37
2018-05-03T04:46:56.913Z,35.43
2018-05-03T04:49:24.590Z,39.40
2018-05-03T04:51:52.225Z,32.00
2018-05-03T04:54:19.944Z,40.57
2018-05-03T04:56:47.581Z,37.80
2018-05-03T04:59:15.809Z,35.20
2018-05-03T05:01:43.514Z,40.50
2018-05-03T05:04:11.254Z,43.27
2018-05-03T05:06:38.861Z,43.93
2018-05-03T05:09:06.654Z,45.37
2018-05-03T05:11:34.273Z,40.00
2018-05-03T05:14:01.942Z,45.30
2018-05-03T05:16:29.659Z,51.10
2018-05-03T05:18:57.354Z,41.80
2018-05-03T05:21:25.097Z,43.50
2018-05-03T05:23:52.800Z,40.83
2018-05-03T05:26:20.513Z,41.07
2018-05-03T05:28:48.954Z,40.27
2018-05-03T05:31:16.657Z,49.30
2018-05-03T05:33:44.298Z,44.70
2018-05-03T05:36:12.016Z,43.27
2018-05-03T05:38:39.770Z,53.20
2018-05-03T05:41:07.330Z,43.33
2018-05-03T05:43:35.074Z,40.83
2018-05-03T05:46:02.729Z,46.37
2018-05-03T05:48:30.419Z,42.47
2018-05-03T05:50:58.245Z,38.40
2018-05-03T05:53:25.930Z,49.37
2018-05-03T05:55:53.610Z,38.47
2018-05-03T05:58:21.255Z,39.93
2018-05-03T06:00:48.966Z,45.13
2018-05-03T06:03:16.677Z,40.00
2018-05-03T06:05:44.454Z,40.30
2018-05-03T06:08:12.275Z,45.80
2018-05-03T06:10:39.945Z,44.60
2018-05-03T06:13:07.650Z,40.53
2018-05-03T06:15:35.366Z,41.87
2018-05-03T06:18:03.090Z,40.60
2018-05-03T06:20:30.735Z,43.27
2018-05-03T06:22:58.509Z,48.17
2018-05-03T06:25:26.126Z,44.90
2018-05-03T06:27:53.709Z,41.70
2018-05-03T06:30:21.359Z,46.40
2018-05-03T06:32:48.991Z,42.43
2018-05-03T06:35:16.592Z,43.10
2018-05-03T06:37:44.257Z,45.17
2018-05-03T06:40:11.927Z,40.13
2018-05-03T06:42:39.562Z,43.20
2018-05-03T06:45:07.258Z,36.13
2018-05-03T06:47:34.967Z,43.67
2018-05-03T06:50:02.674Z,40.30
2018-05-03T06:52:30.406Z,41.13
2018-05-03T06:54:58.119Z,41.00
2018-05-03T06:57:25.904Z,39.17
2018-05-03T06:59:53.629Z,36.47
2018-05-03T07:02:21.305Z,37.63
2018-05-03T07:04:48.983Z,41.77
2018-05-03T07:07:16.687Z,39.70
2018-05-03T07:09:45.333Z,37.43
2018-05-03T07:12:13.054Z,35.47
2018-05-03T07:14:40.766Z,40.00
2018-05-03T07:17:08.498Z,37.60
2018-05-03T07:19:36.182Z,37.20
2018-05-03T07:22:03.994Z,31.77
2018-05-03T07:24:31.681Z,37.70
2018-05-03T07:26:59.591Z,41.10
2018-05-03T07:29:27.350Z,35.90
2018-05-03T07:31:55.074Z,38.50
2018-05-03T07:34:22.795Z,42.20
2018-05-03T07:36:50.435Z,36.60
2018-05-03T07:39:18.073Z,41.63
2018-05-03T07:41:45.873Z,37.87
2018-05-03T07:44:13.614Z,34.37
2018-05-03T07:46:41.342Z,37.40
2018-05-03T07:49:08.965Z,38.10
2018-05-03T07:51:36.678Z,36.77
2018-05-03T07:54:04.370Z,38.33
2018-05-03T07:56:32.068Z,36.37
2018-05-03T07:58:59.691Z,37.53
2018-05-03T08:01:27.306Z,40.57
2018-05-03T08:03:54.978Z,39.00
2018-05-03T08:06:22.763Z,41.10
2018-05-03T08:08:50.233Z,35.27
2018-05-03T08:13:50.301Z,32.70
2018-05-03T08:16:17.929Z,35.03
2018-05-03T08:18:45.553Z,34.30
2018-05-03T08:21:13.251Z,34.30
2018-05-03T08:23:40.873Z,34.27
2018-05-03T08:26:08.470Z,36.10
2018-05-03T08:28:36.131Z,35.27
2018-05-03T08:31:03.725Z,35.60
2018-05-03T08:33:31.359Z,33.50
2018-05-03T08:35:58.945Z,37.27
2018-05-03T08:38:26.622Z,39.77
2018-05-03T08:40:54.233Z,31.73
2018-05-03T08:43:21.861Z,30.20
2018-05-03T08:45:49.465Z,31.07
2018-05-03T08:48:17.063Z,33.43
2018-05-03T08:50:44.781Z,29.00
2018-05-03T08:53:12.444Z,27.30
2018-05-03T08:55:40.107Z,32.53
2018-05-03T08:58:07.753Z,34.07
2018-05-03T09:00:35.390Z,26.83
2018-05-03T09:03:03.062Z,28.07
2018-05-03T09:05:30.722Z,25.63
2018-05-03T09:07:58.403Z,35.43
2018-05-03T09:10:26.126Z,28.93
2018-05-03T09:12:53.817Z,26.83
2018-05-03T09:15:21.527Z,33.87
2018-05-03T09:17:49.175Z,26.60
2018-05-03T09:20:16.853Z,29.33
2018-05-03T09:22:44.549Z,28.47
2018-05-03T09:25:12.397Z,33.30
2018-05-03T09:27:40.047Z,34.30
2018-05-03T09:30:07.740Z,32.83
2018-05-03T09:32:35.418Z,35.87
2018-05-03T09:35:03.092Z,37.10
2018-05-03T09:37:30.794Z,37.63
2018-05-03T09:39:58.498Z,36.20
2018-05-03T09:42:26.190Z,35.87
2018-05-03T09:44:53.870Z,29.33
2018-05-03T09:47:21.569Z,29.27
2018-05-03T09:49:49.278Z,32.33
2018-05-03T09:52:16.971Z,28.63
2018-05-03T09:54:45.199Z,26.47
2018-05-03T09:57:12.884Z,26.77
2018-05-03T09:59:40.580Z,28.60
2018-05-03T10:02:08.234Z,25.60
2018-05-03T10:04:35.913Z,24.93
2018-05-03T10:07:03.561Z,21.67
2018-05-03T10:09:31.157Z,19.97
2018-05-03T10:11:58.797Z,22.03
2018-05-03T10:14:26.489Z,22.17
2018-05-03T10:16:54.217Z,20.13
2018-05-03T10:19:21.885Z,21.53
2018-05-03T10:21:49.586Z,19.97
2018-05-03T10:24:17.293Z,23.73
2018-05-03T10:26:44.966Z,32.93
2018-05-03T10:29:12.637Z,28.20
2018-05-03T10:31:40.317Z,30.83
2018-05-03T10:34:07.974Z,22.60
2018-05-03T10:36:35.895Z,25.50
2018-05-03T10:39:03.662Z,27.57
2018-05-03T10:41:31.346Z,27.73
2018-05-03T10:43:59.002Z,26.53
2018-05-03T10:46:26.706Z,26.07
2018-05-03T10:48:54.358Z,26.20
2018-05-03T10:51:22.018Z,30.43
2018-05-03T10:53:50.433Z,29.13
2018-05-03T10:56:18.106Z,27.50
2018-05-03T10:58:45.777Z,27.17
2018-05-03T11:01:13.451Z,22.40
2018-05-03T11:03:41.109Z,25.40
2018-05-03T11:06:08.710Z,18.93
2018-05-03T11:08:36.297Z,17.77
2018-05-03T11:11:03.975Z,21.27
2018-05-03T11:13:31.588Z,25.00
2018-05-03T11:15:59.218Z,27.90
2018-05-03T11:18:26.919Z,21.43
2018-05-03T11:20:54.549Z,24.37
2018-05-03T11:23:22.162Z,27.70
2018-05-03T11:25:49.799Z,22.27
2018-05-03T11:28:17.413Z,25.90
2018-05-03T11:30:45.004Z,24.77
2018-05-03T11:33:12.653Z,26.70
2018-05-03T11:35:40.293Z,27.77
2018-05-03T11:38:07.885Z,27.50
2018-05-03T11:40:35.519Z,27.20
2018-05-03T11:43:03.126Z,28.77
2018-05-03T11:45:30.725Z,32.07
2018-05-03T11:47:58.394Z,31.00
2018-05-03T11:50:26.152Z,26.33
2018-05-03T11:52:53.871Z,30.10
2018-05-03T11:55:21.613Z,29.87
2018-05-03T11:57:49.392Z,33.00
2018-05-03T12:00:17.130Z,29.63
2018-05-03T12:02:44.818Z,30.53
2018-05-03T12:05:12.496Z,29.70
2018-05-03T12:07:40.162Z,27.47
2018-05-03T12:10:07.863Z,29.20
2018-05-03T12:12:35.522Z,30.63
2018-05-03T12:15:03.138Z,28.50
2018-05-03T12:17:30.731Z,32.37
2018-05-03T12:19:58.364Z,30.57
2018-05-03T12:22:26.006Z,30.33
2018-05-03T12:24:53.598Z,29.73
2018-05-03T12:27:21.239Z,28.37
2018-05-03T12:29:48.874Z,31.07
2018-05-03T12:32:16.501Z,30.77
2018-05-03T12:34:44.235Z,36.03
2018-05-03T12:37:11.927Z,38.57
2018-05-03T12:39:39.562Z,37.63
2018-05-03T12:42:07.239Z,39.23
2018-05-03T12:44:34.874Z,37.47
2018-05-03T12:47:02.561Z,43.17
2018-05-03T12:49:30.222Z,44.77
2018-05-03T12:51:57.833Z,48.77
2018-05-03T12:54:25.447Z,42.97
2018-05-03T12:56:53.073Z,47.17
2018-05-03T12:59:20.680Z,43.90
2018-05-03T13:01:48.302Z,43.07
2018-05-03T13:04:15.929Z,44.37
2018-05-03T13:06:43.557Z,47.97
2018-05-03T13:09:11.215Z,46.23
2018-05-03T13:11:38.817Z,45.90
2018-05-03T13:14:06.536Z,47.97
2018-05-03T13:16:34.129Z,45.67
2018-05-03T13:19:01.767Z,47.60
2018-05-03T13:21:29.370Z,48.70
2018-05-03T13:23:56.959Z,44.10
2018-05-03T13:26:24.577Z,48.03
2018-05-03T13:28:52.257Z,46.47
2018-05-03T13:31:19.891Z,41.73
2018-05-03T13:33:47.481Z,44.97
2018-05-03T13:36:15.122Z,42.70
2018-05-03T13:38:42.714Z,42.67
2018-05-03T13:41:10.452Z,35.87
2018-05-03T13:43:38.077Z,42.33
2018-05-03T13:46:05.671Z,41.17
2018-05-03T13:48:33.261Z,43.10
2018-05-03T13:51:00.954Z,40.97
2018-05-03T13:53:28.635Z,36.13
2018-05-03T13:55:56.311Z,36.07
2018-05-03T13:58:23.942Z,39.23
2018-05-03T14:00:51.673Z,38.63
2018-05-03T14:03:19.377Z,39.93
2018-05-03T14:05:47.011Z,40.33
2018-05-03T14:08:14.688Z,36.30
2018-05-03T14:10:42.297Z,40.43
2018-05-03T14:13:09.949Z,36.43
2018-05-03T14:15:37.569Z,43.77
2018-05-03T14:18:05.158Z,41.77
2018-05-03T14:20:32.843Z,43.37
2018-05-03T14:23:00.465Z,40.83
2018-05-03T14:25:28.085Z,42.40
2018-05-03T14:27:55.687Z,96.23
2018-05-03T14:30:23.375Z,39.93
2018-05-03T14:32:50.985Z,53.77
2018-05-03T14:35:19.450Z,39.93
2018-05-03T14:37:47.123Z,36.97
2018-05-03T14:40:14.830Z,36.13
2018-05-03T14:42:43.419Z,44.03
2018-05-03T14:45:11.070Z,38.83
2018-05-03T14:47:38.734Z,35.77
2018-05-03T14:50:06.402Z,31.13
2018-05-03T14:52:34.036Z,33.07
2018-05-03T14:55:01.647Z,33.30
2018-05-03T14:57:29.361Z,31.00
2018-05-03T14:59:57.009Z,27.67
2018-05-03T15:02:24.609Z,30.67
2018-05-03T15:04:52.202Z,32.00
2018-05-03T15:07:19.874Z,27.60
2018-05-03T15:09:47.461Z,26.63
2018-05-03T15:12:15.057Z,24.53
2018-05-03T15:14:42.683Z,34.90
2018-05-03T15:17:10.378Z,29.93
2018-05-03T15:19:38.099Z,27.53
2018-05-03T15:22:05.818Z,27.97
2018-05-03T15:24:33.442Z,30.10
2018-05-03T15:27:01.083Z,30.97
2018-05-03T15:29:28.765Z,23.50
2018-05-03T15:31:58.697Z,28.50
2018-05-03T15:34:26.373Z,28.80
2018-05-03T15:36:54.011Z,29.77
2018-05-03T15:39:21.707Z,29.37
2018-05-03T15:41:49.245Z,34.57
2018-05-03T15:44:16.870Z,29.43
2018-05-03T15:46:44.515Z,31.07
2018-05-03T15:49:12.209Z,27.53
2018-05-03T15:51:40.031Z,25.53
2018-05-03T15:54:07.705Z,31.13
2018-05-03T15:56:35.359Z,25.57
2018-05-03T15:59:03.107Z,28.90
2018-05-03T16:01:30.860Z,24.03
2018-05-03T16:03:58.430Z,24.53
2018-05-03T16:06:26.137Z,29.53
2018-05-03T16:08:53.788Z,25.30
2018-05-03T16:11:21.406Z,28.00
2018-05-03T16:13:49.071Z,22.73
2018-05-03T16:16:16.835Z,29.87
2018-05-03T16:18:44.513Z,23.77
2018-05-03T16:21:12.214Z,26.57
2018-05-03T16:23:39.982Z,28.10
2018-05-03T16:26:07.610Z,28.30
2018-05-03T16:28:35.249Z,25.10
2018-05-03T16:31:02.888Z,28.70
2018-05-03T16:33:30.533Z,27.60
2018-05-03T16:35:58.261Z,24.83
2018-05-03T16:38:25.909Z,22.37
2018-05-03T16:40:53.635Z,28.00
2018-05-03T16:43:21.367Z,24.37
2018-05-03T16:45:48.981Z,21.70
2018-05-03T16:48:16.621Z,24.90
2018-05-03T16:50:44.310Z,25.43
2018-05-03T16:53:12.024Z,24.37
2018-05-03T16:55:39.674Z,24.63
2018-05-03T16:58:07.398Z,20.97
2018-05-03T17:00:35.087Z,22.10
2018-05-03T17:03:02.790Z,23.77
2018-05-03T17:05:30.502Z,20.17
2018-05-03T17:07:58.215Z,25.67
2018-05-03T17:10:25.878Z,19.33
2018-05-03T17:12:53.542Z,28.27
2018-05-03T17:15:21.213Z,21.37
2018-05-03T17:17:48.942Z,20.53
2018-05-03T17:20:16.565Z,20.40
2018-05-03T17:22:44.221Z,17.37
2018-05-03T17:25:11.966Z,22.17
2018-05-03T17:27:39.598Z,22.73
2018-05-03T17:30:07.646Z,17.97
2018-05-03T17:32:35.631Z,15.80
2018-05-03T17:35:03.464Z,19.80
2018-05-03T17:37:31.365Z,18.00
2018-05-03T17:39:59.297Z,23.27
2018-05-03T17:42:27.145Z,23.17
2018-05-03T17:44:54.859Z,24.77
2018-05-03T17:47:22.606Z,32.53
2018-05-03T17:49:50.378Z,29.80
2018-05-03T17:52:18.033Z,28.13
2018-05-03T17:54:45.706Z,31.73
2018-05-03T17:57:13.516Z,26.60
2018-05-03T17:59:41.212Z,29.43
2018-05-03T18:02:08.904Z,31.70
2018-05-03T18:04:36.646Z,27.17
2018-05-03T18:07:05.124Z,25.23
2018-05-03T18:09:32.862Z,29.53
2018-05-03T18:12:00.576Z,28.60
2018-05-03T18:14:28.247Z,24.17
2018-05-03T18:16:56.019Z,25.03
2018-05-03T18:19:23.729Z,25.90
2018-05-03T18:21:51.422Z,28.23
2018-05-03T18:24:19.077Z,25.23
2018-05-03T18:26:46.685Z,31.67
2018-05-03T18:29:14.302Z,29.23
2018-05-03T18:31:41.977Z,25.97
2018-05-03T18:34:09.583Z,28.10
2018-05-03T18:36:37.181Z,30.57
2018-05-03T18:39:04.853Z,28.63
2018-05-03T18:41:32.509Z,35.93
2018-05-03T18:44:00.188Z,39.93
2018-05-03T18:46:27.752Z,84.80
2018-05-03T18:48:55.462Z,42.63
2018-05-03T18:51:23.150Z,41.40
2018-05-03T18:53:50.909Z,35.47
2018-05-03T18:56:18.631Z,30.67
2018-05-03T18:58:46.278Z,31.20
2018-05-03T19:01:13.947Z,36.10
2018-05-03T19:03:41.611Z,36.47
2018-05-03T19:06:09.322Z,32.23
2018-05-03T19:08:36.952Z,30.87
2018-05-03T19:11:04.625Z,48.80
2018-05-03T19:13:32.326Z,48.07
2018-05-03T19:16:00.041Z,57.13
2018-05-03T19:18:27.753Z,56.83
2018-05-03T19:20:55.394Z,49.57
2018-05-03T19:23:23.058Z,52.70
2018-05-03T19:25:50.739Z,56.00
2018-05-03T19:28:18.368Z,54.07
2018-05-03T19:30:46.069Z,66.20
2018-05-03T19:33:13.775Z,57.80
2018-05-03T19:35:41.409Z,53.87
2018-05-03T19:38:09.062Z,57.17
2018-05-03T19:40:36.895Z,57.53
2018-05-03T19:43:04.650Z,50.67
2018-05-03T19:45:32.362Z,54.37
2018-05-03T19:48:00.172Z,54.30
2018-05-03T19:50:27.910Z,49.03
2018-05-03T19:52:55.558Z,53.27
2018-05-03T19:55:23.234Z,52.40
2018-05-03T19:57:50.898Z,51.13
2018-05-03T20:00:18.534Z,46.33
2018-05-03T20:02:46.290Z,60.27
2018-05-03T20:05:13.962Z,62.50
2018-05-03T20:07:41.640Z,55.70
2018-05-03T20:10:09.377Z,55.83
2018-05-03T20:12:37.069Z,56.67
2018-05-03T20:15:04.769Z,53.17
2018-05-03T20:17:32.438Z,57.73
2018-05-03T20:20:00.162Z,61.67
2018-05-03T20:22:27.803Z,59.97
2018-05-03T20:24:55.529Z,59.03
2018-05-03T20:27:23.169Z,59.13
2018-05-03T20:29:50.882Z,62.67
2018-05-03T20:32:18.519Z,62.13
2018-05-03T20:34:46.234Z,64.27
2018-05-03T20:37:13.943Z,60.07
2018-05-03T20:39:41.722Z,63.83
2018-05-03T20:42:09.401Z,58.57
2018-05-03T20:44:37.137Z,62.27
2018-05-03T20:47:04.827Z,63.77
2018-05-03T20:49:32.553Z,55.83
2018-05-03T20:52:00.192Z,58.63
2018-05-03T20:54:27.822Z,63.07
2018-05-03T20:56:55.439Z,52.73
2018-05-03T20:59:23.070Z,53.27
2018-05-03T21:01:50.748Z,54.63
2018-05-03T21:04:18.465Z,54.70
2018-05-03T21:06:46.169Z,57.37
2018-05-03T21:09:13.854Z,60.10
2018-05-03T21:11:41.477Z,51.87
2018-05-03T21:14:09.125Z,53.97
2018-05-03T21:16:36.814Z,52.57
2018-05-03T21:19:04.454Z,56.30
2018-05-03T21:21:32.083Z,52.70
2018-05-03T21:23:59.706Z,58.43
2018-05-03T21:26:27.370Z,52.67
2018-05-03T21:28:55.006Z,51.13
2018-05-03T21:31:22.682Z,52.90
2018-05-03T21:33:50.309Z,54.43
2018-05-03T21:36:17.953Z,54.00
2018-05-03T21:38:45.605Z,52.63
2018-05-03T21:41:13.269Z,53.17
2018-05-03T21:43:40.875Z,60.20
2018-05-03T21:46:08.502Z,52.73
2018-05-03T21:48:36.113Z,51.73
2018-05-03T21:51:03.753Z,44.73
2018-05-03T21:53:31.362Z,48.23
2018-05-03T21:55:58.993Z,50.77
2018-05-03T21:58:26.637Z,49.53
2018-05-03T22:00:54.305Z,48.60
2018-05-03T22:03:21.914Z,50.70
2018-05-03T22:05:49.601Z,48.10
2018-05-03T22:08:17.338Z,48.43
2018-05-03T22:10:44.981Z,46.27
2018-05-03T22:13:12.605Z,47.27
2018-05-03T22:15:40.225Z,54.90
2018-05-03T22:18:07.849Z,49.40
2018-05-03T22:20:35.553Z,45.67
2018-05-03T22:23:03.233Z,45.07
2018-05-03T22:25:30.849Z,53.03
2018-05-03T22:27:58.476Z,46.60
2018-05-03T22:30:26.126Z,48.50
2018-05-03T22:32:53.747Z,46.93
2018-05-03T22:35:21.566Z,49.70
2018-05-03T22:37:49.253Z,51.30
2018-05-03T22:40:16.946Z,47.07
2018-05-03T22:42:44.689Z,43.17
2018-05-03T22:45:12.400Z,33.67
2018-05-03T22:47:40.105Z,33.17
2018-05-03T22:50:07.906Z,26.20
2018-05-03T22:52:35.601Z,23.77
2018-05-03T22:55:03.239Z,25.63
2018-05-03T22:57:30.954Z,26.03
2018-05-03T22:59:58.707Z,22.73
2018-05-03T23:02:26.381Z,23.73
2018-05-03T23:04:54.078Z,23.90
2018-05-03T23:07:21.759Z,24.80
2018-05-03T23:09:49.505Z,25.17
2018-05-03T23:12:17.149Z,23.00
2018-05-03T23:14:44.820Z,22.70
2018-05-03T23:17:12.569Z,22.53
2018-05-03T23:19:40.206Z,22.63
2018-05-03T23:22:07.821Z,23.27
2018-05-03T23:24:35.546Z,18.57
2018-05-03T23:27:03.235Z,20.43
2018-05-03T23:29:30.858Z,23.00
2018-05-03T23:31:58.542Z,27.63
2018-05-03T23:34:26.181Z,26.00
2018-05-03T23:36:53.866Z,24.90
2018-05-03T23:39:21.493Z,22.90
2018-05-03T23:41:49.138Z,24.20
2018-05-03T23:44:16.746Z,22.70
2018-05-03T23:46:44.365Z,25.17
2018-05-03T23:49:12.005Z,23.57
2018-05-03T23:51:39.617Z,26.03
2018-05-03T23:54:07.219Z,21.63
2018-05-03T23:56:34.837Z,21.80
2018-05-03T23:59:02.481Z,20.83
